sensor_id;sensor_type;location;lat;lon;timestamp;temperature;humidity
13346;DHT22;6742;48.036;15.780;2022-09-09T09:37:57;23.90;99.90
13346;DHT22;6742;48.036;15.780;2022-09-09T09:45:40;24.20;99.90
13346;DHT22;6742;48.036;15.780;2022-09-09T09:48:11;24.40;99.90
13346;DHT22;6742;48.036;15.780;2022-09-09T09:50:47;24.60;99.90
13346;DHT22;6742;48.036;15.780;2022-09-09T10:00:50;25.90;99.40
13346;DHT22;6742;48.036;15.780;2022-09-09T10:08:18;26.10;98.40
13346;DHT22;6742;48.036;15.780;2022-09-09T10:11:05;26.30;96.90
13346;DHT22;6742;48.036;15.780;2022-09-09T10:13:42;26.40;97.90
13346;DHT22;6742;48.036;15.780;2022-09-09T10:16:23;26.20;96.50
13346;DHT22;6742;48.036;15.780;2022-09-09T10:19:01;26.10;95.70
13346;DHT22;6742;48.036;15.780;2022-09-09T10:21:45;26.00;96.50
13346;DHT22;6742;48.036;15.780;2022-09-09T10:24:49;26.30;96.20
13346;DHT22;6742;48.036;15.780;2022-09-09T10:27:24;26.60;95.80
13346;DHT22;6742;48.036;15.780;2022-09-09T10:30:03;26.60;95.00
13346;DHT22;6742;48.036;15.780;2022-09-09T10:32:41;26.40;95.00
13346;DHT22;6742;48.036;15.780;2022-09-09T10:35:19;26.30;95.90
13346;DHT22;6742;48.036;15.780;2022-09-09T10:38:13;26.20;95.10
13346;DHT22;6742;48.036;15.780;2022-09-09T10:44:13;26.00;96.50
13346;DHT22;6742;48.036;15.780;2022-09-09T10:46:57;26.00;94.90
13346;DHT22;6742;48.036;15.780;2022-09-09T10:49:43;25.90;97.30
13346;DHT22;6742;48.036;15.780;2022-09-09T10:52:20;25.90;97.10
13346;DHT22;6742;48.036;15.780;2022-09-09T10:54:56;25.70;97.50
13346;DHT22;6742;48.036;15.780;2022-09-09T10:57:28;25.50;97.30
13346;DHT22;6742;48.036;15.780;2022-09-09T11:00:01;25.40;96.00
13346;DHT22;6742;48.036;15.780;2022-09-09T11:02:34;25.50;95.90
13346;DHT22;6742;48.036;15.780;2022-09-09T11:05:05;25.60;95.60
13346;DHT22;6742;48.036;15.780;2022-09-09T11:07:40;26.00;96.00
13346;DHT22;6742;48.036;15.780;2022-09-09T11:10:18;26.10;95.60
13346;DHT22;6742;48.036;15.780;2022-09-09T11:12:51;26.40;95.70
13346;DHT22;6742;48.036;15.780;2022-09-09T11:15:23;26.40;95.30
13346;DHT22;6742;48.036;15.780;2022-09-09T11:17:54;26.30;95.10
13346;DHT22;6742;48.036;15.780;2022-09-09T11:20:23;25.70;97.20
13346;DHT22;6742;48.036;15.780;2022-09-09T11:22:56;25.60;95.50
13346;DHT22;6742;48.036;15.780;2022-09-09T11:25:30;25.40;95.60
13346;DHT22;6742;48.036;15.780;2022-09-09T11:28:15;25.30;96.20
13346;DHT22;6742;48.036;15.780;2022-09-09T11:30:59;25.20;96.70
13346;DHT22;6742;48.036;15.780;2022-09-09T11:33:58;25.20;97.70
13346;DHT22;6742;48.036;15.780;2022-09-09T11:39:01;25.10;99.50
13346;DHT22;6742;48.036;15.780;2022-09-09T11:41:35;25.00;99.90
13346;DHT22;6742;48.036;15.780;2022-09-09T11:44:10;24.70;99.90
13346;DHT22;6742;48.036;15.780;2022-09-09T11:46:38;24.70;99.90
13346;DHT22;6742;48.036;15.780;2022-09-09T11:49:26;24.60;99.90
13346;DHT22;6742;48.036;15.780;2022-09-09T11:51:53;24.40;99.90
13346;DHT22;6742;48.036;15.780;2022-09-09T11:54:30;24.30;99.90
13346;DHT22;6742;48.036;15.780;2022-09-09T11:56:57;24.00;99.90
13346;DHT22;6742;48.036;15.780;2022-09-09T11:59:29;23.90;99.90
13346;DHT22;6742;48.036;15.780;2022-09-09T12:01:58;23.80;99.90
13346;DHT22;6742;48.036;15.780;2022-09-09T12:04:30;23.80;99.90
13346;DHT22;6742;48.036;15.780;2022-09-09T12:07:03;23.70;99.90
13346;DHT22;6742;48.036;15.780;2022-09-09T12:09:44;23.50;99.90
13346;DHT22;6742;48.036;15.780;2022-09-09T12:12:30;23.40;99.90
13346;DHT22;6742;48.036;15.780;2022-09-09T12:15:22;23.30;99.90
13346;DHT22;6742;48.036;15.780;2022-09-09T12:17:55;23.00;99.90
13346;DHT22;6742;48.036;15.780;2022-09-09T12:20:23;22.80;99.90
13346;DHT22;6742;48.036;15.780;2022-09-09T12:23:22;22.70;99.90
13346;DHT22;6742;48.036;15.780;2022-09-09T12:28:51;22.30;99.90
13346;DHT22;6742;48.036;15.780;2022-09-09T12:31:22;22.10;99.90
13346;DHT22;6742;48.036;15.780;2022-09-09T12:33:51;22.00;99.90
13346;DHT22;6742;48.036;15.780;2022-09-09T12:36:20;21.80;99.90
13346;DHT22;6742;48.036;15.780;2022-09-09T12:38:48;21.60;99.90
13346;DHT22;6742;48.036;15.780;2022-09-09T12:41:22;21.30;99.90
13346;DHT22;6742;48.036;15.780;2022-09-09T12:43:50;21.10;99.90
13346;DHT22;6742;48.036;15.780;2022-09-09T12:46:30;20.80;99.90
13346;DHT22;6742;48.036;15.780;2022-09-09T12:48:59;20.50;99.90
13346;DHT22;6742;48.036;15.780;2022-09-09T12:51:31;20.20;99.90
13346;DHT22;6742;48.036;15.780;2022-09-09T12:56:36;19.90;99.90
13346;DHT22;6742;48.036;15.780;2022-09-09T12:59:17;19.70;99.90
13346;DHT22;6742;48.036;15.780;2022-09-09T13:14:31;19.10;99.90
13346;DHT22;6742;48.036;15.780;2022-09-09T13:17:05;19.20;99.90
13346;DHT22;6742;48.036;15.780;2022-09-09T13:19:35;19.30;99.90
13346;DHT22;6742;48.036;15.780;2022-09-09T13:22:11;19.30;99.90
13346;DHT22;6742;48.036;15.780;2022-09-09T13:24:39;19.20;99.90
13346;DHT22;6742;48.036;15.780;2022-09-09T13:27:26;19.30;99.90
13346;DHT22;6742;48.036;15.780;2022-09-09T13:29:55;19.30;99.90
13346;DHT22;6742;48.036;15.780;2022-09-09T13:32:24;19.40;99.90
13346;DHT22;6742;48.036;15.780;2022-09-09T13:34:53;19.40;99.90
13346;DHT22;6742;48.036;15.780;2022-09-09T13:37:23;19.50;99.90
13346;DHT22;6742;48.036;15.780;2022-09-09T13:39:54;19.50;99.90
13346;DHT22;6742;48.036;15.780;2022-09-09T13:42:26;19.50;99.90
13346;DHT22;6742;48.036;15.780;2022-09-09T13:44:55;19.50;99.90
13346;DHT22;6742;48.036;15.780;2022-09-09T13:47:28;19.60;99.90
13346;DHT22;6742;48.036;15.780;2022-09-09T13:49:57;19.60;99.90
13346;DHT22;6742;48.036;15.780;2022-09-09T13:52:24;19.70;99.90
13346;DHT22;6742;48.036;15.780;2022-09-09T13:54:53;19.60;99.90
13346;DHT22;6742;48.036;15.780;2022-09-09T13:57:22;19.70;99.90
13346;DHT22;6742;48.036;15.780;2022-09-09T13:59:52;19.70;99.90
13346;DHT22;6742;48.036;15.780;2022-09-09T14:02:21;19.70;99.90
13346;DHT22;6742;48.036;15.780;2022-09-09T14:04:52;19.60;99.90
13346;DHT22;6742;48.036;15.780;2022-09-09T14:07:21;19.70;99.90
13346;DHT22;6742;48.036;15.780;2022-09-09T14:09:48;19.60;99.90
13346;DHT22;6742;48.036;15.780;2022-09-09T14:12:20;19.70;99.90
13346;DHT22;6742;48.036;15.780;2022-09-09T14:14:47;19.70;99.90
13346;DHT22;6742;48.036;15.780;2022-09-09T14:17:15;19.70;99.90
13346;DHT22;6742;48.036;15.780;2022-09-09T14:19:44;19.60;99.90
13346;DHT22;6742;48.036;15.780;2022-09-09T14:22:11;19.60;99.90
13346;DHT22;6742;48.036;15.780;2022-09-09T14:24:38;19.60;99.90
13346;DHT22;6742;48.036;15.780;2022-09-09T14:27:06;19.50;99.90
13346;DHT22;6742;48.036;15.780;2022-09-09T14:29:33;19.50;99.90
13346;DHT22;6742;48.036;15.780;2022-09-09T14:32:00;19.50;99.90
13346;DHT22;6742;48.036;15.780;2022-09-09T14:34:27;19.50;99.90
13346;DHT22;6742;48.036;15.780;2022-09-09T14:36:55;19.50;99.90
13346;DHT22;6742;48.036;15.780;2022-09-09T14:39:22;19.50;99.90
13346;DHT22;6742;48.036;15.780;2022-09-09T14:41:49;19.50;99.90
13346;DHT22;6742;48.036;15.780;2022-09-09T14:44:16;19.50;99.90
13346;DHT22;6742;48.036;15.780;2022-09-09T14:46:43;19.50;99.90
13346;DHT22;6742;48.036;15.780;2022-09-09T14:49:10;19.50;99.90
13346;DHT22;6742;48.036;15.780;2022-09-09T14:51:41;19.40;99.90
13346;DHT22;6742;48.036;15.780;2022-09-09T14:54:09;19.40;99.90
13346;DHT22;6742;48.036;15.780;2022-09-09T14:56:36;19.30;99.90
13346;DHT22;6742;48.036;15.780;2022-09-09T14:59:07;19.30;99.90
13346;DHT22;6742;48.036;15.780;2022-09-09T15:01:34;19.30;99.90
13346;DHT22;6742;48.036;15.780;2022-09-09T15:04:03;19.30;99.90
13346;DHT22;6742;48.036;15.780;2022-09-09T15:06:32;19.20;99.90
13346;DHT22;6742;48.036;15.780;2022-09-09T15:09:00;19.20;99.90
13346;DHT22;6742;48.036;15.780;2022-09-09T15:11:30;19.30;99.90
13346;DHT22;6742;48.036;15.780;2022-09-09T15:13:57;19.20;99.90
13346;DHT22;6742;48.036;15.780;2022-09-09T15:16:26;19.30;99.90
13346;DHT22;6742;48.036;15.780;2022-09-09T15:18:55;19.20;99.90
13346;DHT22;6742;48.036;15.780;2022-09-09T15:21:24;19.30;99.90
13346;DHT22;6742;48.036;15.780;2022-09-09T15:23:54;19.30;99.90
13346;DHT22;6742;48.036;15.780;2022-09-09T15:26:21;19.20;99.90
13346;DHT22;6742;48.036;15.780;2022-09-09T15:28:50;19.10;99.90
13346;DHT22;6742;48.036;15.780;2022-09-09T15:31:18;19.10;99.90
13346;DHT22;6742;48.036;15.780;2022-09-09T15:33:47;19.00;99.90
13346;DHT22;6742;48.036;15.780;2022-09-09T15:36:16;19.00;99.90
13346;DHT22;6742;48.036;15.780;2022-09-09T15:38:46;19.00;99.90
13346;DHT22;6742;48.036;15.780;2022-09-09T15:41:14;19.00;99.90
13346;DHT22;6742;48.036;15.780;2022-09-09T15:43:43;19.00;99.90
13346;DHT22;6742;48.036;15.780;2022-09-09T15:46:28;19.00;99.90
13346;DHT22;6742;48.036;15.780;2022-09-09T15:48:56;18.90;99.90
13346;DHT22;6742;48.036;15.780;2022-09-09T15:51:24;18.90;99.90
13346;DHT22;6742;48.036;15.780;2022-09-09T15:53:54;18.80;99.90
13346;DHT22;6742;48.036;15.780;2022-09-09T15:56:22;18.80;99.90
13346;DHT22;6742;48.036;15.780;2022-09-09T15:58:49;18.80;99.90
13346;DHT22;6742;48.036;15.780;2022-09-09T16:01:18;18.80;99.90
13346;DHT22;6742;48.036;15.780;2022-09-09T16:03:47;18.70;99.90
13346;DHT22;6742;48.036;15.780;2022-09-09T16:06:16;18.70;99.90
13346;DHT22;6742;48.036;15.780;2022-09-09T16:08:45;18.60;99.90
13346;DHT22;6742;48.036;15.780;2022-09-09T16:11:16;18.60;99.90
13346;DHT22;6742;48.036;15.780;2022-09-09T16:13:46;18.60;99.90
13346;DHT22;6742;48.036;15.780;2022-09-09T16:16:15;18.50;99.90
13346;DHT22;6742;48.036;15.780;2022-09-09T16:18:43;18.50;99.90
13346;DHT22;6742;48.036;15.780;2022-09-09T16:21:14;18.50;99.90
13346;DHT22;6742;48.036;15.780;2022-09-09T16:23:42;18.40;99.90
13346;DHT22;6742;48.036;15.780;2022-09-09T16:26:11;18.40;99.90
13346;DHT22;6742;48.036;15.780;2022-09-09T16:38:58;17.90;99.90
13346;DHT22;6742;48.036;15.780;2022-09-09T16:54:17;18.00;99.90
13346;DHT22;6742;48.036;15.780;2022-09-09T17:07:02;18.00;99.90
13346;DHT22;6742;48.036;15.780;2022-09-09T17:17:16;18.10;99.90
13346;DHT22;6742;48.036;15.780;2022-09-09T17:19:43;18.00;99.90
13346;DHT22;6742;48.036;15.780;2022-09-09T17:45:19;18.00;99.90
13346;DHT22;6742;48.036;15.780;2022-09-09T17:50:22;18.00;99.90
13346;DHT22;6742;48.036;15.780;2022-09-09T18:05:45;17.70;99.90
13346;DHT22;6742;48.036;15.780;2022-09-09T18:08:12;17.70;99.90
13346;DHT22;6742;48.036;15.780;2022-09-09T18:18:10;17.60;99.90
13346;DHT22;6742;48.036;15.780;2022-09-09T18:20:38;17.60;99.90
13346;DHT22;6742;48.036;15.780;2022-09-09T18:23:07;17.60;99.90
13346;DHT22;6742;48.036;15.780;2022-09-09T18:25:37;17.60;99.90
13346;DHT22;6742;48.036;15.780;2022-09-09T18:28:08;17.60;99.90
13346;DHT22;6742;48.036;15.780;2022-09-09T18:30:38;17.60;99.90
13346;DHT22;6742;48.036;15.780;2022-09-09T18:33:05;17.60;99.90
13346;DHT22;6742;48.036;15.780;2022-09-09T18:38:00;17.60;99.90
13346;DHT22;6742;48.036;15.780;2022-09-09T18:40:30;17.60;99.90
13346;DHT22;6742;48.036;15.780;2022-09-09T18:42:58;17.50;99.90
13346;DHT22;6742;48.036;15.780;2022-09-09T18:45:26;17.50;99.90
13346;DHT22;6742;48.036;15.780;2022-09-09T18:47:53;17.50;99.90
13346;DHT22;6742;48.036;15.780;2022-09-09T18:50:21;17.40;99.90
13346;DHT22;6742;48.036;15.780;2022-09-09T18:52:48;17.50;99.90
13346;DHT22;6742;48.036;15.780;2022-09-09T18:57:46;17.50;99.90
13346;DHT22;6742;48.036;15.780;2022-09-09T19:02:49;17.50;99.90
13346;DHT22;6742;48.036;15.780;2022-09-09T19:05:17;17.50;99.90
13346;DHT22;6742;48.036;15.780;2022-09-09T19:10:12;17.50;99.90
13346;DHT22;6742;48.036;15.780;2022-09-09T19:17:44;17.50;99.90
13346;DHT22;6742;48.036;15.780;2022-09-09T19:20:11;17.50;99.90
13346;DHT22;6742;48.036;15.780;2022-09-09T19:22:38;17.50;99.90
13346;DHT22;6742;48.036;15.780;2022-09-09T19:25:06;17.50;99.90
13346;DHT22;6742;48.036;15.780;2022-09-09T19:27:33;17.40;99.90
13346;DHT22;6742;48.036;15.780;2022-09-09T19:30:00;17.40;99.90
13346;DHT22;6742;48.036;15.780;2022-09-09T19:32:27;17.40;99.90
13346;DHT22;6742;48.036;15.780;2022-09-09T19:34:55;17.40;99.90
13346;DHT22;6742;48.036;15.780;2022-09-09T19:39:52;17.30;99.90
13346;DHT22;6742;48.036;15.780;2022-09-09T19:42:19;17.30;99.90
13346;DHT22;6742;48.036;15.780;2022-09-09T19:44:46;17.30;99.90
13346;DHT22;6742;48.036;15.780;2022-09-09T19:47:14;17.30;99.90
13346;DHT22;6742;48.036;15.780;2022-09-09T19:52:10;17.30;99.90
13346;DHT22;6742;48.036;15.780;2022-09-09T19:54:37;17.40;99.90
13346;DHT22;6742;48.036;15.780;2022-09-09T19:57:04;17.30;99.90
13346;DHT22;6742;48.036;15.780;2022-09-09T19:59:31;17.30;99.90
13346;DHT22;6742;48.036;15.780;2022-09-09T20:01:58;17.30;99.90
13346;DHT22;6742;48.036;15.780;2022-09-09T20:04:25;17.30;99.90
13346;DHT22;6742;48.036;15.780;2022-09-09T20:06:52;17.30;99.90
13346;DHT22;6742;48.036;15.780;2022-09-09T20:09:21;17.20;99.90
13346;DHT22;6742;48.036;15.780;2022-09-09T20:11:50;17.20;99.90
13346;DHT22;6742;48.036;15.780;2022-09-09T20:14:17;17.20;99.90
13346;DHT22;6742;48.036;15.780;2022-09-09T20:16:45;17.20;99.90
13346;DHT22;6742;48.036;15.780;2022-09-09T20:19:13;17.20;99.90
13346;DHT22;6742;48.036;15.780;2022-09-09T20:21:43;17.20;99.90
13346;DHT22;6742;48.036;15.780;2022-09-09T20:24:12;17.20;99.90
13346;DHT22;6742;48.036;15.780;2022-09-09T20:26:43;17.10;99.90
13346;DHT22;6742;48.036;15.780;2022-09-09T20:29:13;17.10;99.90
13346;DHT22;6742;48.036;15.780;2022-09-09T20:31:40;17.20;99.90
13346;DHT22;6742;48.036;15.780;2022-09-09T20:34:10;17.20;99.90
13346;DHT22;6742;48.036;15.780;2022-09-09T20:36:38;17.20;99.90
13346;DHT22;6742;48.036;15.780;2022-09-09T20:39:07;17.20;99.90
13346;DHT22;6742;48.036;15.780;2022-09-09T20:41:36;17.20;99.90
13346;DHT22;6742;48.036;15.780;2022-09-09T20:44:10;17.20;99.90
13346;DHT22;6742;48.036;15.780;2022-09-09T20:46:40;17.20;99.90
13346;DHT22;6742;48.036;15.780;2022-09-09T20:49:09;17.20;99.90
13346;DHT22;6742;48.036;15.780;2022-09-09T20:51:37;17.10;99.90
13346;DHT22;6742;48.036;15.780;2022-09-09T20:54:06;17.10;99.90
13346;DHT22;6742;48.036;15.780;2022-09-09T20:56:34;17.10;99.90
13346;DHT22;6742;48.036;15.780;2022-09-09T20:59:03;17.00;99.90
13346;DHT22;6742;48.036;15.780;2022-09-09T21:01:31;17.00;99.90
13346;DHT22;6742;48.036;15.780;2022-09-09T21:03:58;17.00;99.90
13346;DHT22;6742;48.036;15.780;2022-09-09T21:06:25;17.00;99.90
13346;DHT22;6742;48.036;15.780;2022-09-09T21:08:52;17.00;99.90
13346;DHT22;6742;48.036;15.780;2022-09-09T21:11:19;17.00;99.90
13346;DHT22;6742;48.036;15.780;2022-09-09T21:13:46;17.00;99.90
13346;DHT22;6742;48.036;15.780;2022-09-09T21:16:15;17.00;99.90
13346;DHT22;6742;48.036;15.780;2022-09-09T21:18:45;16.90;99.90
13346;DHT22;6742;48.036;15.780;2022-09-09T21:21:12;16.90;99.90
13346;DHT22;6742;48.036;15.780;2022-09-09T21:23:39;16.90;99.90
13346;DHT22;6742;48.036;15.780;2022-09-09T21:26:07;16.90;99.90
13346;DHT22;6742;48.036;15.780;2022-09-09T21:28:35;16.90;99.90
13346;DHT22;6742;48.036;15.780;2022-09-09T21:31:02;16.90;99.90
13346;DHT22;6742;48.036;15.780;2022-09-09T21:33:30;16.90;99.90
13346;DHT22;6742;48.036;15.780;2022-09-09T21:36:02;16.90;99.90
13346;DHT22;6742;48.036;15.780;2022-09-09T21:38:30;16.90;99.90
13346;DHT22;6742;48.036;15.780;2022-09-09T21:41:01;16.90;99.90
13346;DHT22;6742;48.036;15.780;2022-09-09T21:43:31;16.90;99.90
13346;DHT22;6742;48.036;15.780;2022-09-09T21:45:59;16.80;99.90
13346;DHT22;6742;48.036;15.780;2022-09-09T21:48:28;16.90;99.90
13346;DHT22;6742;48.036;15.780;2022-09-09T21:51:03;16.80;99.90
13346;DHT22;6742;48.036;15.780;2022-09-09T21:53:31;16.80;99.90
13346;DHT22;6742;48.036;15.780;2022-09-09T21:56:00;16.80;99.90
13346;DHT22;6742;48.036;15.780;2022-09-09T21:58:27;16.90;99.90
13346;DHT22;6742;48.036;15.780;2022-09-09T22:00:54;16.90;99.90
13346;DHT22;6742;48.036;15.780;2022-09-09T22:03:22;16.90;99.90
13346;DHT22;6742;48.036;15.780;2022-09-09T22:05:49;16.90;99.90
13346;DHT22;6742;48.036;15.780;2022-09-09T22:08:18;16.90;99.90
13346;DHT22;6742;48.036;15.780;2022-09-09T22:10:46;16.90;99.90
13346;DHT22;6742;48.036;15.780;2022-09-09T22:13:14;16.90;99.90
13346;DHT22;6742;48.036;15.780;2022-09-09T22:15:42;16.90;99.90
13346;DHT22;6742;48.036;15.780;2022-09-09T22:18:10;16.90;99.90
13346;DHT22;6742;48.036;15.780;2022-09-09T22:20:44;16.90;99.90
13346;DHT22;6742;48.036;15.780;2022-09-09T22:23:12;16.90;99.90
13346;DHT22;6742;48.036;15.780;2022-09-09T22:25:41;16.90;99.90
13346;DHT22;6742;48.036;15.780;2022-09-09T22:28:12;16.80;99.90
13346;DHT22;6742;48.036;15.780;2022-09-09T22:30:39;16.80;99.90
13346;DHT22;6742;48.036;15.780;2022-09-09T22:33:06;16.80;99.90
13346;DHT22;6742;48.036;15.780;2022-09-09T22:35:38;16.80;99.90
13346;DHT22;6742;48.036;15.780;2022-09-09T22:38:07;16.80;99.90
13346;DHT22;6742;48.036;15.780;2022-09-09T22:40:34;16.80;99.90
13346;DHT22;6742;48.036;15.780;2022-09-09T22:43:03;16.80;99.90
13346;DHT22;6742;48.036;15.780;2022-09-09T22:45:32;16.80;99.90
13346;DHT22;6742;48.036;15.780;2022-09-09T22:47:59;16.80;99.90
13346;DHT22;6742;48.036;15.780;2022-09-09T22:50:26;16.70;99.90
13346;DHT22;6742;48.036;15.780;2022-09-09T22:52:53;16.80;99.90
13346;DHT22;6742;48.036;15.780;2022-09-09T22:55:20;16.70;99.90
13346;DHT22;6742;48.036;15.780;2022-09-09T22:57:47;16.70;99.90
13346;DHT22;6742;48.036;15.780;2022-09-09T23:00:16;16.70;99.90
13346;DHT22;6742;48.036;15.780;2022-09-09T23:02:43;16.70;99.90
13346;DHT22;6742;48.036;15.780;2022-09-09T23:05:15;16.70;99.90
13346;DHT22;6742;48.036;15.780;2022-09-09T23:07:42;16.70;99.90
13346;DHT22;6742;48.036;15.780;2022-09-09T23:10:09;16.70;99.90
13346;DHT22;6742;48.036;15.780;2022-09-09T23:12:36;16.70;99.90
13346;DHT22;6742;48.036;15.780;2022-09-09T23:15:06;16.70;99.90
13346;DHT22;6742;48.036;15.780;2022-09-09T23:17:39;16.70;99.90
13346;DHT22;6742;48.036;15.780;2022-09-09T23:20:08;16.70;99.90
13346;DHT22;6742;48.036;15.780;2022-09-09T23:22:38;16.70;99.90
13346;DHT22;6742;48.036;15.780;2022-09-09T23:25:06;16.70;99.90
13346;DHT22;6742;48.036;15.780;2022-09-09T23:27:33;16.70;99.90
13346;DHT22;6742;48.036;15.780;2022-09-09T23:30:03;16.70;99.90
13346;DHT22;6742;48.036;15.780;2022-09-09T23:32:31;16.70;99.90
13346;DHT22;6742;48.036;15.780;2022-09-09T23:35:00;16.70;99.90
13346;DHT22;6742;48.036;15.780;2022-09-09T23:37:27;16.70;99.90
13346;DHT22;6742;48.036;15.780;2022-09-09T23:39:56;16.70;99.90
13346;DHT22;6742;48.036;15.780;2022-09-09T23:42:22;16.70;99.90
13346;DHT22;6742;48.036;15.780;2022-09-09T23:44:51;16.70;99.90
13346;DHT22;6742;48.036;15.780;2022-09-09T23:47:18;16.70;99.90
13346;DHT22;6742;48.036;15.780;2022-09-09T23:49:45;16.60;99.90
13346;DHT22;6742;48.036;15.780;2022-09-09T23:52:18;16.60;99.90
13346;DHT22;6742;48.036;15.780;2022-09-09T23:54:45;16.60;99.90
13346;DHT22;6742;48.036;15.780;2022-09-09T23:57:14;16.60;99.90
13346;DHT22;6742;48.036;15.780;2022-09-09T23:59:41;16.50;99.90
